sensor_id;sensor_type;location;lat;lon;timestamp;P1;durP1;ratioP1;P2;durP2;ratioP2
57241;SDS011;43095;53.302;5.786;2022-12-01T00:01:38;71.53;;;39.70;;
57241;SDS011;43095;53.302;5.786;2022-12-01T00:04:09;76.78;;;40.90;;
57241;SDS011;43095;53.302;5.786;2022-12-01T00:06:58;72.07;;;40.00;;
57241;SDS011;43095;53.302;5.786;2022-12-01T00:09:34;74.78;;;41.53;;
57241;SDS011;43095;53.302;5.786;2022-12-01T00:12:28;66.82;;;39.50;;
57241;SDS011;43095;53.302;5.786;2022-12-01T00:15:00;65.70;;;38.80;;
57241;SDS011;43095;53.302;5.786;2022-12-01T00:17:36;68.18;;;38.67;;
57241;SDS011;43095;53.302;5.786;2022-12-01T00:20:10;65.72;;;38.95;;
57241;SDS011;43095;53.302;5.786;2022-12-01T00:22:45;66.53;;;38.50;;
57241;SDS011;43095;53.302;5.786;2022-12-01T00:25:18;68.82;;;40.25;;
57241;SDS011;43095;53.302;5.786;2022-12-01T00:28:06;64.45;;;38.42;;
57241;SDS011;43095;53.302;5.786;2022-12-01T00:30:34;69.85;;;39.40;;
57241;SDS011;43095;53.302;5.786;2022-12-01T00:36:09;75.22;;;40.47;;
57241;SDS011;43095;53.302;5.786;2022-12-01T00:38:41;72.78;;;42.20;;
57241;SDS011;43095;53.302;5.786;2022-12-01T00:41:15;69.25;;;39.53;;
57241;SDS011;43095;53.302;5.786;2022-12-01T00:43:51;78.93;;;41.50;;
57241;SDS011;43095;53.302;5.786;2022-12-01T00:46:34;72.60;;;40.30;;
57241;SDS011;43095;53.302;5.786;2022-12-01T00:49:13;80.90;;;43.38;;
57241;SDS011;43095;53.302;5.786;2022-12-01T00:51:41;75.68;;;42.55;;
57241;SDS011;43095;53.302;5.786;2022-12-01T00:54:14;75.32;;;40.97;;
57241;SDS011;43095;53.302;5.786;2022-12-01T00:59:13;66.97;;;36.35;;
57241;SDS011;43095;53.302;5.786;2022-12-01T01:01:42;70.30;;;39.25;;
57241;SDS011;43095;53.302;5.786;2022-12-01T01:04:15;73.55;;;39.70;;
57241;SDS011;43095;53.302;5.786;2022-12-01T01:06:46;74.47;;;40.65;;
57241;SDS011;43095;53.302;5.786;2022-12-01T01:09:14;71.50;;;41.15;;
57241;SDS011;43095;53.302;5.786;2022-12-01T01:11:46;76.80;;;40.40;;
57241;SDS011;43095;53.302;5.786;2022-12-01T01:14:17;66.28;;;38.65;;
57241;SDS011;43095;53.302;5.786;2022-12-01T01:16:53;69.32;;;38.13;;
57241;SDS011;43095;53.302;5.786;2022-12-01T01:19:26;74.65;;;40.28;;
57241;SDS011;43095;53.302;5.786;2022-12-01T01:21:54;76.82;;;40.67;;
57241;SDS011;43095;53.302;5.786;2022-12-01T01:24:32;74.30;;;40.70;;
57241;SDS011;43095;53.302;5.786;2022-12-01T01:27:11;76.07;;;40.38;;
57241;SDS011;43095;53.302;5.786;2022-12-01T01:29:51;82.38;;;41.65;;
57241;SDS011;43095;53.302;5.786;2022-12-01T01:32:19;91.93;;;45.80;;
57241;SDS011;43095;53.302;5.786;2022-12-01T01:34:49;81.85;;;42.05;;
57241;SDS011;43095;53.302;5.786;2022-12-01T01:37:25;80.32;;;43.67;;
57241;SDS011;43095;53.302;5.786;2022-12-01T01:39:55;81.55;;;42.88;;
57241;SDS011;43095;53.302;5.786;2022-12-01T01:42:25;75.78;;;41.92;;
57241;SDS011;43095;53.302;5.786;2022-12-01T01:44:54;80.85;;;40.63;;
57241;SDS011;43095;53.302;5.786;2022-12-01T01:47:29;85.50;;;43.22;;
57241;SDS011;43095;53.302;5.786;2022-12-01T01:50:11;79.40;;;42.67;;
57241;SDS011;43095;53.302;5.786;2022-12-01T01:52:47;80.80;;;43.35;;
57241;SDS011;43095;53.302;5.786;2022-12-01T01:55:18;86.80;;;44.08;;
57241;SDS011;43095;53.302;5.786;2022-12-01T01:57:47;85.88;;;44.63;;
57241;SDS011;43095;53.302;5.786;2022-12-01T02:00:17;81.57;;;42.35;;
57241;SDS011;43095;53.302;5.786;2022-12-01T02:02:48;84.28;;;43.58;;
57241;SDS011;43095;53.302;5.786;2022-12-01T02:05:21;95.65;;;44.83;;
57241;SDS011;43095;53.302;5.786;2022-12-01T02:07:51;74.45;;;41.80;;
57241;SDS011;43095;53.302;5.786;2022-12-01T02:13:15;73.95;;;40.10;;
57241;SDS011;43095;53.302;5.786;2022-12-01T02:16:11;85.55;;;42.30;;
57241;SDS011;43095;53.302;5.786;2022-12-01T02:19:01;80.93;;;42.75;;
57241;SDS011;43095;53.302;5.786;2022-12-01T02:30:41;92.32;;;45.63;;
57241;SDS011;43095;53.302;5.786;2022-12-01T02:33:36;80.68;;;40.55;;
57241;SDS011;43095;53.302;5.786;2022-12-01T02:41:51;92.78;;;46.05;;
57241;SDS011;43095;53.302;5.786;2022-12-01T02:44:32;91.20;;;43.75;;
57241;SDS011;43095;53.302;5.786;2022-12-01T02:47:13;86.57;;;44.40;;
57241;SDS011;43095;53.302;5.786;2022-12-01T02:49:43;88.47;;;44.78;;
57241;SDS011;43095;53.302;5.786;2022-12-01T02:52:18;90.80;;;45.50;;
57241;SDS011;43095;53.302;5.786;2022-12-01T02:54:55;83.15;;;41.22;;
57241;SDS011;43095;53.302;5.786;2022-12-01T02:57:25;74.00;;;40.42;;
57241;SDS011;43095;53.302;5.786;2022-12-01T02:59:55;82.05;;;41.10;;
57241;SDS011;43095;53.302;5.786;2022-12-01T03:02:34;83.22;;;41.50;;
57241;SDS011;43095;53.302;5.786;2022-12-01T03:10:59;85.45;;;43.72;;
57241;SDS011;43095;53.302;5.786;2022-12-01T03:13:40;104.35;;;48.63;;
57241;SDS011;43095;53.302;5.786;2022-12-01T03:16:46;87.25;;;44.53;;
57241;SDS011;43095;53.302;5.786;2022-12-01T03:22:00;97.05;;;46.90;;
57241;SDS011;43095;53.302;5.786;2022-12-01T03:24:48;77.30;;;41.80;;
57241;SDS011;43095;53.302;5.786;2022-12-01T03:27:30;95.22;;;47.25;;
57241;SDS011;43095;53.302;5.786;2022-12-01T03:30:08;93.18;;;47.90;;
57241;SDS011;43095;53.302;5.786;2022-12-01T03:32:55;80.00;;;42.50;;
57241;SDS011;43095;53.302;5.786;2022-12-01T03:38:45;93.38;;;46.05;;
57241;SDS011;43095;53.302;5.786;2022-12-01T03:41:35;79.38;;;41.45;;
57241;SDS011;43095;53.302;5.786;2022-12-01T03:44:13;84.10;;;42.70;;
57241;SDS011;43095;53.302;5.786;2022-12-01T03:47:22;88.35;;;45.65;;
57241;SDS011;43095;53.302;5.786;2022-12-01T03:49:58;83.63;;;42.65;;
57241;SDS011;43095;53.302;5.786;2022-12-01T03:52:46;89.78;;;44.10;;
57241;SDS011;43095;53.302;5.786;2022-12-01T03:55:18;85.47;;;43.70;;
57241;SDS011;43095;53.302;5.786;2022-12-01T04:00:35;83.10;;;42.92;;
57241;SDS011;43095;53.302;5.786;2022-12-01T04:03:04;82.30;;;42.15;;
57241;SDS011;43095;53.302;5.786;2022-12-01T04:05:33;89.93;;;44.30;;
57241;SDS011;43095;53.302;5.786;2022-12-01T04:08:01;91.72;;;45.30;;
57241;SDS011;43095;53.302;5.786;2022-12-01T04:10:29;83.30;;;44.33;;
57241;SDS011;43095;53.302;5.786;2022-12-01T04:12:59;90.28;;;46.72;;
57241;SDS011;43095;53.302;5.786;2022-12-01T04:15:29;90.82;;;46.50;;
57241;SDS011;43095;53.302;5.786;2022-12-01T04:17:57;88.78;;;44.30;;
57241;SDS011;43095;53.302;5.786;2022-12-01T04:20:25;81.88;;;43.15;;
57241;SDS011;43095;53.302;5.786;2022-12-01T04:22:52;80.88;;;42.72;;
57241;SDS011;43095;53.302;5.786;2022-12-01T04:25:22;101.35;;;46.58;;
57241;SDS011;43095;53.302;5.786;2022-12-01T04:27:51;106.75;;;49.08;;
57241;SDS011;43095;53.302;5.786;2022-12-01T04:30:21;85.50;;;43.42;;
57241;SDS011;43095;53.302;5.786;2022-12-01T04:32:49;90.68;;;44.95;;
57241;SDS011;43095;53.302;5.786;2022-12-01T04:35:17;95.65;;;45.80;;
57241;SDS011;43095;53.302;5.786;2022-12-01T04:37:47;99.70;;;47.38;;
57241;SDS011;43095;53.302;5.786;2022-12-01T04:40:17;100.97;;;47.85;;
57241;SDS011;43095;53.302;5.786;2022-12-01T04:42:45;89.95;;;45.90;;
57241;SDS011;43095;53.302;5.786;2022-12-01T04:45:14;89.65;;;44.40;;
57241;SDS011;43095;53.302;5.786;2022-12-01T04:47:47;88.32;;;45.40;;
57241;SDS011;43095;53.302;5.786;2022-12-01T04:50:22;104.13;;;47.95;;
57241;SDS011;43095;53.302;5.786;2022-12-01T04:52:50;98.13;;;46.53;;
57241;SDS011;43095;53.302;5.786;2022-12-01T04:55:22;96.45;;;47.05;;
57241;SDS011;43095;53.302;5.786;2022-12-01T04:57:57;91.38;;;46.15;;
57241;SDS011;43095;53.302;5.786;2022-12-01T05:00:29;99.60;;;46.30;;
57241;SDS011;43095;53.302;5.786;2022-12-01T05:02:57;96.00;;;46.20;;
57241;SDS011;43095;53.302;5.786;2022-12-01T05:05:26;94.80;;;46.67;;
57241;SDS011;43095;53.302;5.786;2022-12-01T05:07:59;84.13;;;43.45;;
57241;SDS011;43095;53.302;5.786;2022-12-01T05:10:29;81.40;;;43.33;;
57241;SDS011;43095;53.302;5.786;2022-12-01T05:12:57;83.05;;;43.67;;
57241;SDS011;43095;53.302;5.786;2022-12-01T05:15:26;83.45;;;44.10;;
57241;SDS011;43095;53.302;5.786;2022-12-01T05:17:54;85.07;;;43.35;;
57241;SDS011;43095;53.302;5.786;2022-12-01T05:20:24;91.07;;;46.05;;
57241;SDS011;43095;53.302;5.786;2022-12-01T05:23:13;83.60;;;43.58;;
57241;SDS011;43095;53.302;5.786;2022-12-01T05:25:43;81.28;;;43.30;;
57241;SDS011;43095;53.302;5.786;2022-12-01T05:28:13;84.40;;;42.50;;
57241;SDS011;43095;53.302;5.786;2022-12-01T05:30:41;88.57;;;43.88;;
57241;SDS011;43095;53.302;5.786;2022-12-01T05:33:11;83.10;;;42.67;;
57241;SDS011;43095;53.302;5.786;2022-12-01T05:35:49;75.60;;;40.83;;
57241;SDS011;43095;53.302;5.786;2022-12-01T05:38:22;82.50;;;43.58;;
57241;SDS011;43095;53.302;5.786;2022-12-01T05:40:51;80.10;;;39.83;;
57241;SDS011;43095;53.302;5.786;2022-12-01T05:43:26;76.40;;;39.13;;
57241;SDS011;43095;53.302;5.786;2022-12-01T05:45:56;71.25;;;35.65;;
57241;SDS011;43095;53.302;5.786;2022-12-01T05:48:24;66.13;;;34.45;;
57241;SDS011;43095;53.302;5.786;2022-12-01T05:51:10;67.35;;;36.33;;
57241;SDS011;43095;53.302;5.786;2022-12-01T05:53:40;72.47;;;33.70;;
57241;SDS011;43095;53.302;5.786;2022-12-01T05:56:08;72.95;;;36.58;;
57241;SDS011;43095;53.302;5.786;2022-12-01T05:58:43;76.22;;;38.00;;
57241;SDS011;43095;53.302;5.786;2022-12-01T06:01:14;70.10;;;35.55;;
57241;SDS011;43095;53.302;5.786;2022-12-01T06:03:43;64.50;;;35.47;;
57241;SDS011;43095;53.302;5.786;2022-12-01T06:06:11;64.30;;;33.70;;
57241;SDS011;43095;53.302;5.786;2022-12-01T06:08:38;63.67;;;32.80;;
57241;SDS011;43095;53.302;5.786;2022-12-01T06:11:06;60.53;;;31.00;;
57241;SDS011;43095;53.302;5.786;2022-12-01T06:13:34;55.42;;;30.25;;
57241;SDS011;43095;53.302;5.786;2022-12-01T06:16:04;54.83;;;30.92;;
57241;SDS011;43095;53.302;5.786;2022-12-01T06:18:36;52.85;;;28.65;;
57241;SDS011;43095;53.302;5.786;2022-12-01T06:21:05;52.85;;;30.08;;
57241;SDS011;43095;53.302;5.786;2022-12-01T06:23:35;54.10;;;27.85;;
57241;SDS011;43095;53.302;5.786;2022-12-01T06:26:04;54.63;;;28.60;;
57241;SDS011;43095;53.302;5.786;2022-12-01T06:28:32;47.60;;;25.75;;
57241;SDS011;43095;53.302;5.786;2022-12-01T06:31:01;46.28;;;25.02;;
57241;SDS011;43095;53.302;5.786;2022-12-01T06:33:37;41.35;;;23.60;;
57241;SDS011;43095;53.302;5.786;2022-12-01T06:36:09;43.90;;;24.00;;
57241;SDS011;43095;53.302;5.786;2022-12-01T06:38:37;36.63;;;22.35;;
57241;SDS011;43095;53.302;5.786;2022-12-01T06:41:04;37.97;;;21.27;;
57241;SDS011;43095;53.302;5.786;2022-12-01T06:43:34;31.38;;;20.05;;
57241;SDS011;43095;53.302;5.786;2022-12-01T06:46:05;32.28;;;20.00;;
57241;SDS011;43095;53.302;5.786;2022-12-01T06:48:33;34.85;;;19.25;;
57241;SDS011;43095;53.302;5.786;2022-12-01T06:51:01;33.50;;;18.00;;
57241;SDS011;43095;53.302;5.786;2022-12-01T06:53:34;28.98;;;17.70;;
57241;SDS011;43095;53.302;5.786;2022-12-01T06:56:09;32.08;;;18.65;;
57241;SDS011;43095;53.302;5.786;2022-12-01T06:58:40;33.53;;;18.90;;
57241;SDS011;43095;53.302;5.786;2022-12-01T07:01:08;28.08;;;17.25;;
57241;SDS011;43095;53.302;5.786;2022-12-01T07:06:08;28.25;;;17.05;;
57241;SDS011;43095;53.302;5.786;2022-12-01T07:08:36;28.83;;;16.25;;
57241;SDS011;43095;53.302;5.786;2022-12-01T07:11:05;28.92;;;16.80;;
57241;SDS011;43095;53.302;5.786;2022-12-01T07:13:34;29.70;;;16.67;;
57241;SDS011;43095;53.302;5.786;2022-12-01T07:16:04;27.67;;;16.83;;
57241;SDS011;43095;53.302;5.786;2022-12-01T07:18:35;26.65;;;15.13;;
57241;SDS011;43095;53.302;5.786;2022-12-01T07:21:07;23.77;;;15.30;;
57241;SDS011;43095;53.302;5.786;2022-12-01T07:23:42;26.45;;;15.77;;
57241;SDS011;43095;53.302;5.786;2022-12-01T07:26:16;24.85;;;15.55;;
57241;SDS011;43095;53.302;5.786;2022-12-01T07:28:44;26.00;;;15.38;;
57241;SDS011;43095;53.302;5.786;2022-12-01T07:31:16;27.40;;;16.40;;
57241;SDS011;43095;53.302;5.786;2022-12-01T07:33:44;28.08;;;16.63;;
57241;SDS011;43095;53.302;5.786;2022-12-01T07:36:15;28.65;;;15.60;;
57241;SDS011;43095;53.302;5.786;2022-12-01T07:38:42;27.10;;;15.95;;
57241;SDS011;43095;53.302;5.786;2022-12-01T07:41:11;27.10;;;16.10;;
57241;SDS011;43095;53.302;5.786;2022-12-01T07:44:00;23.67;;;14.73;;
57241;SDS011;43095;53.302;5.786;2022-12-01T07:46:28;23.42;;;15.35;;
57241;SDS011;43095;53.302;5.786;2022-12-01T07:49:00;21.52;;;15.00;;
57241;SDS011;43095;53.302;5.786;2022-12-01T07:51:32;25.38;;;14.68;;
57241;SDS011;43095;53.302;5.786;2022-12-01T07:54:03;24.45;;;15.18;;
57241;SDS011;43095;53.302;5.786;2022-12-01T07:56:35;23.50;;;14.23;;
57241;SDS011;43095;53.302;5.786;2022-12-01T07:59:03;23.42;;;14.77;;
57241;SDS011;43095;53.302;5.786;2022-12-01T08:01:41;23.70;;;15.25;;
57241;SDS011;43095;53.302;5.786;2022-12-01T08:04:10;24.27;;;15.63;;
57241;SDS011;43095;53.302;5.786;2022-12-01T08:06:44;24.25;;;15.80;;
57241;SDS011;43095;53.302;5.786;2022-12-01T08:09:14;24.63;;;15.40;;
57241;SDS011;43095;53.302;5.786;2022-12-01T08:11:41;23.08;;;14.57;;
57241;SDS011;43095;53.302;5.786;2022-12-01T08:14:09;25.75;;;15.30;;
57241;SDS011;43095;53.302;5.786;2022-12-01T08:16:41;24.38;;;14.63;;
57241;SDS011;43095;53.302;5.786;2022-12-01T08:19:12;24.80;;;15.63;;
57241;SDS011;43095;53.302;5.786;2022-12-01T08:21:42;22.90;;;15.35;;
57241;SDS011;43095;53.302;5.786;2022-12-01T08:24:09;25.42;;;16.20;;
57241;SDS011;43095;53.302;5.786;2022-12-01T08:26:37;25.50;;;14.13;;
57241;SDS011;43095;53.302;5.786;2022-12-01T08:29:13;22.67;;;14.70;;
57241;SDS011;43095;53.302;5.786;2022-12-01T08:31:46;25.88;;;14.55;;
57241;SDS011;43095;53.302;5.786;2022-12-01T08:34:13;23.23;;;13.73;;
57241;SDS011;43095;53.302;5.786;2022-12-01T08:36:41;27.08;;;15.45;;
57241;SDS011;43095;53.302;5.786;2022-12-01T08:39:10;21.23;;;13.88;;
57241;SDS011;43095;53.302;5.786;2022-12-01T08:41:43;24.65;;;14.20;;
57241;SDS011;43095;53.302;5.786;2022-12-01T08:44:23;22.23;;;13.68;;
57241;SDS011;43095;53.302;5.786;2022-12-01T08:47:06;22.92;;;13.40;;
57241;SDS011;43095;53.302;5.786;2022-12-01T08:49:35;22.02;;;13.93;;
57241;SDS011;43095;53.302;5.786;2022-12-01T08:52:03;24.20;;;15.07;;
57241;SDS011;43095;53.302;5.786;2022-12-01T08:54:38;22.85;;;14.02;;
57241;SDS011;43095;53.302;5.786;2022-12-01T08:57:06;23.13;;;14.68;;
57241;SDS011;43095;53.302;5.786;2022-12-01T08:59:37;22.80;;;14.45;;
57241;SDS011;43095;53.302;5.786;2022-12-01T09:02:13;20.73;;;14.18;;
57241;SDS011;43095;53.302;5.786;2022-12-01T09:04:42;26.20;;;15.48;;
57241;SDS011;43095;53.302;5.786;2022-12-01T09:07:23;21.40;;;13.60;;
57241;SDS011;43095;53.302;5.786;2022-12-01T09:10:03;21.42;;;13.80;;
57241;SDS011;43095;53.302;5.786;2022-12-01T09:12:37;20.55;;;13.13;;
57241;SDS011;43095;53.302;5.786;2022-12-01T09:15:12;22.23;;;13.30;;
57241;SDS011;43095;53.302;5.786;2022-12-01T09:17:44;21.70;;;13.52;;
57241;SDS011;43095;53.302;5.786;2022-12-01T09:20:22;18.55;;;12.88;;
57241;SDS011;43095;53.302;5.786;2022-12-01T09:23:09;22.52;;;13.70;;
57241;SDS011;43095;53.302;5.786;2022-12-01T09:25:37;17.40;;;11.95;;
57241;SDS011;43095;53.302;5.786;2022-12-01T09:28:07;19.10;;;11.10;;
57241;SDS011;43095;53.302;5.786;2022-12-01T09:30:41;22.52;;;12.13;;
57241;SDS011;43095;53.302;5.786;2022-12-01T09:33:16;19.05;;;12.43;;
57241;SDS011;43095;53.302;5.786;2022-12-01T09:35:46;19.58;;;12.23;;
57241;SDS011;43095;53.302;5.786;2022-12-01T09:38:24;20.70;;;11.65;;
57241;SDS011;43095;53.302;5.786;2022-12-01T09:40:55;19.33;;;12.75;;
57241;SDS011;43095;53.302;5.786;2022-12-01T09:43:31;20.45;;;12.23;;
57241;SDS011;43095;53.302;5.786;2022-12-01T09:46:19;17.33;;;10.85;;
57241;SDS011;43095;53.302;5.786;2022-12-01T09:48:57;19.00;;;11.73;;
57241;SDS011;43095;53.302;5.786;2022-12-01T09:54:01;16.48;;;10.82;;
57241;SDS011;43095;53.302;5.786;2022-12-01T09:56:30;21.52;;;13.00;;
57241;SDS011;43095;53.302;5.786;2022-12-01T09:59:17;16.05;;;11.02;;
57241;SDS011;43095;53.302;5.786;2022-12-01T10:02:12;17.40;;;10.27;;
57241;SDS011;43095;53.302;5.786;2022-12-01T10:04:53;23.90;;;10.10;;
57241;SDS011;43095;53.302;5.786;2022-12-01T10:07:28;15.65;;;9.52;;
57241;SDS011;43095;53.302;5.786;2022-12-01T10:10:00;17.42;;;10.63;;
57241;SDS011;43095;53.302;5.786;2022-12-01T10:12:32;16.00;;;10.32;;
57241;SDS011;43095;53.302;5.786;2022-12-01T10:15:13;14.48;;;9.80;;
57241;SDS011;43095;53.302;5.786;2022-12-01T10:23:59;17.30;;;9.23;;
57241;SDS011;43095;53.302;5.786;2022-12-01T10:26:33;12.70;;;8.82;;
57241;SDS011;43095;53.302;5.786;2022-12-01T10:31:52;15.25;;;8.95;;
57241;SDS011;43095;53.302;5.786;2022-12-01T10:34:32;14.23;;;9.30;;
57241;SDS011;43095;53.302;5.786;2022-12-01T10:37:02;14.35;;;8.00;;
57241;SDS011;43095;53.302;5.786;2022-12-01T10:39:38;11.38;;;7.78;;
57241;SDS011;43095;53.302;5.786;2022-12-01T10:45:01;12.48;;;7.97;;
57241;SDS011;43095;53.302;5.786;2022-12-01T10:47:31;11.95;;;7.60;;
57241;SDS011;43095;53.302;5.786;2022-12-01T10:50:01;13.55;;;8.35;;
57241;SDS011;43095;53.302;5.786;2022-12-01T10:52:38;15.50;;;8.77;;
57241;SDS011;43095;53.302;5.786;2022-12-01T11:00:22;10.45;;;7.05;;
57241;SDS011;43095;53.302;5.786;2022-12-01T11:03:20;12.02;;;8.07;;
57241;SDS011;43095;53.302;5.786;2022-12-01T11:05:57;11.38;;;6.57;;
57241;SDS011;43095;53.302;5.786;2022-12-01T11:11:22;7.80;;;5.05;;
57241;SDS011;43095;53.302;5.786;2022-12-01T11:14:16;8.43;;;5.35;;
57241;SDS011;43095;53.302;5.786;2022-12-01T11:16:55;8.85;;;6.05;;
57241;SDS011;43095;53.302;5.786;2022-12-01T11:19:31;7.00;;;5.20;;
57241;SDS011;43095;53.302;5.786;2022-12-01T11:22:16;8.15;;;5.30;;
57241;SDS011;43095;53.302;5.786;2022-12-01T11:27:29;8.20;;;5.60;;
57241;SDS011;43095;53.302;5.786;2022-12-01T11:30:04;10.05;;;6.50;;
57241;SDS011;43095;53.302;5.786;2022-12-01T11:32:58;9.35;;;5.60;;
57241;SDS011;43095;53.302;5.786;2022-12-01T11:35:31;10.02;;;5.75;;
57241;SDS011;43095;53.302;5.786;2022-12-01T11:38:17;8.77;;;5.68;;
57241;SDS011;43095;53.302;5.786;2022-12-01T11:40:58;10.15;;;6.07;;
57241;SDS011;43095;53.302;5.786;2022-12-01T11:43:35;8.07;;;5.78;;
57241;SDS011;43095;53.302;5.786;2022-12-01T11:46:08;10.18;;;7.05;;
57241;SDS011;43095;53.302;5.786;2022-12-01T11:48:38;11.82;;;6.07;;
57241;SDS011;43095;53.302;5.786;2022-12-01T11:53:45;9.65;;;5.95;;
57241;SDS011;43095;53.302;5.786;2022-12-01T11:56:20;10.73;;;6.88;;
57241;SDS011;43095;53.302;5.786;2022-12-01T11:58:51;13.00;;;7.93;;
57241;SDS011;43095;53.302;5.786;2022-12-01T12:01:46;11.77;;;7.25;;
57241;SDS011;43095;53.302;5.786;2022-12-01T12:10:33;11.68;;;7.78;;
57241;SDS011;43095;53.302;5.786;2022-12-01T12:18:43;11.82;;;8.07;;
57241;SDS011;43095;53.302;5.786;2022-12-01T12:26:46;11.52;;;8.32;;
57241;SDS011;43095;53.302;5.786;2022-12-01T12:34:49;12.10;;;8.50;;
57241;SDS011;43095;53.302;5.786;2022-12-01T12:46:50;12.68;;;8.45;;
57241;SDS011;43095;53.302;5.786;2022-12-01T12:52:00;13.90;;;8.85;;
57241;SDS011;43095;53.302;5.786;2022-12-01T12:54:50;13.23;;;8.65;;
57241;SDS011;43095;53.302;5.786;2022-12-01T13:05:41;13.48;;;9.48;;
57241;SDS011;43095;53.302;5.786;2022-12-01T13:08:25;14.27;;;8.40;;
57241;SDS011;43095;53.302;5.786;2022-12-01T13:11:15;12.05;;;7.95;;
57241;SDS011;43095;53.302;5.786;2022-12-01T13:14:06;12.48;;;8.40;;
57241;SDS011;43095;53.302;5.786;2022-12-01T13:16:47;13.27;;;9.13;;
57241;SDS011;43095;53.302;5.786;2022-12-01T13:19:21;12.63;;;9.07;;
57241;SDS011;43095;53.302;5.786;2022-12-01T13:22:03;10.60;;;8.32;;
57241;SDS011;43095;53.302;5.786;2022-12-01T13:24:37;12.88;;;9.75;;
57241;SDS011;43095;53.302;5.786;2022-12-01T13:29:43;13.07;;;8.80;;
57241;SDS011;43095;53.302;5.786;2022-12-01T13:32:36;13.88;;;9.82;;
57241;SDS011;43095;53.302;5.786;2022-12-01T13:35:19;14.50;;;10.00;;
57241;SDS011;43095;53.302;5.786;2022-12-01T13:38:13;13.60;;;9.73;;
57241;SDS011;43095;53.302;5.786;2022-12-01T13:43:55;14.95;;;9.90;;
57241;SDS011;43095;53.302;5.786;2022-12-01T13:46:32;13.68;;;10.00;;
57241;SDS011;43095;53.302;5.786;2022-12-01T13:49:36;14.50;;;10.13;;
57241;SDS011;43095;53.302;5.786;2022-12-01T13:52:32;14.13;;;9.75;;
57241;SDS011;43095;53.302;5.786;2022-12-01T13:57:30;12.80;;;9.77;;
57241;SDS011;43095;53.302;5.786;2022-12-01T14:02:27;15.00;;;10.05;;
57241;SDS011;43095;53.302;5.786;2022-12-01T14:08:02;12.27;;;9.40;;
57241;SDS011;43095;53.302;5.786;2022-12-01T14:13:45;13.85;;;9.73;;
57241;SDS011;43095;53.302;5.786;2022-12-01T14:16:50;14.82;;;10.48;;
57241;SDS011;43095;53.302;5.786;2022-12-01T14:22:05;14.88;;;10.90;;
57241;SDS011;43095;53.302;5.786;2022-12-01T14:24:52;14.85;;;10.48;;
57241;SDS011;43095;53.302;5.786;2022-12-01T14:38:53;13.27;;;10.05;;
57241;SDS011;43095;53.302;5.786;2022-12-01T14:41:25;15.18;;;10.13;;
57241;SDS011;43095;53.302;5.786;2022-12-01T14:44:04;13.27;;;10.07;;
57241;SDS011;43095;53.302;5.786;2022-12-01T14:46:55;13.77;;;10.77;;
57241;SDS011;43095;53.302;5.786;2022-12-01T14:49:25;16.58;;;11.25;;
57241;SDS011;43095;53.302;5.786;2022-12-01T14:52:01;16.65;;;11.88;;
57241;SDS011;43095;53.302;5.786;2022-12-01T14:54:41;15.95;;;11.63;;
57241;SDS011;43095;53.302;5.786;2022-12-01T14:57:17;18.48;;;11.88;;
57241;SDS011;43095;53.302;5.786;2022-12-01T15:00:00;16.08;;;10.75;;
57241;SDS011;43095;53.302;5.786;2022-12-01T15:05:29;18.27;;;12.05;;
57241;SDS011;43095;53.302;5.786;2022-12-01T15:07:58;17.92;;;12.35;;
57241;SDS011;43095;53.302;5.786;2022-12-01T15:11:00;19.13;;;12.77;;
57241;SDS011;43095;53.302;5.786;2022-12-01T15:13:47;19.75;;;12.40;;
57241;SDS011;43095;53.302;5.786;2022-12-01T15:16:20;18.13;;;12.57;;
57241;SDS011;43095;53.302;5.786;2022-12-01T15:18:49;18.00;;;12.52;;
57241;SDS011;43095;53.302;5.786;2022-12-01T15:24:02;20.77;;;14.40;;
57241;SDS011;43095;53.302;5.786;2022-12-01T15:26:33;24.83;;;16.10;;
57241;SDS011;43095;53.302;5.786;2022-12-01T15:31:45;49.17;;;28.10;;
57241;SDS011;43095;53.302;5.786;2022-12-01T15:34:16;56.50;;;29.55;;
57241;SDS011;43095;53.302;5.786;2022-12-01T15:37:18;59.55;;;30.90;;
57241;SDS011;43095;53.302;5.786;2022-12-01T15:39:50;60.80;;;32.35;;
57241;SDS011;43095;53.302;5.786;2022-12-01T15:43:21;58.78;;;32.97;;
57241;SDS011;43095;53.302;5.786;2022-12-01T15:45:48;57.25;;;33.40;;
57241;SDS011;43095;53.302;5.786;2022-12-01T15:48:32;59.15;;;33.78;;
57241;SDS011;43095;53.302;5.786;2022-12-01T15:51:02;59.22;;;34.13;;
57241;SDS011;43095;53.302;5.786;2022-12-01T15:53:32;58.25;;;33.33;;
57241;SDS011;43095;53.302;5.786;2022-12-01T15:56:06;57.00;;;33.45;;
57241;SDS011;43095;53.302;5.786;2022-12-01T15:58:39;60.72;;;32.33;;
57241;SDS011;43095;53.302;5.786;2022-12-01T16:01:13;56.97;;;31.90;;
57241;SDS011;43095;53.302;5.786;2022-12-01T16:07:04;56.45;;;31.95;;
57241;SDS011;43095;53.302;5.786;2022-12-01T16:09:37;60.92;;;32.72;;
57241;SDS011;43095;53.302;5.786;2022-12-01T16:15:04;53.20;;;31.88;;
57241;SDS011;43095;53.302;5.786;2022-12-01T16:17:47;58.28;;;32.42;;
57241;SDS011;43095;53.302;5.786;2022-12-01T16:20:17;57.20;;;31.20;;
57241;SDS011;43095;53.302;5.786;2022-12-01T16:22:59;54.33;;;31.50;;
57241;SDS011;43095;53.302;5.786;2022-12-01T16:25:32;52.10;;;30.90;;
57241;SDS011;43095;53.302;5.786;2022-12-01T16:28:05;61.15;;;33.05;;
57241;SDS011;43095;53.302;5.786;2022-12-01T16:30:43;52.22;;;30.50;;
57241;SDS011;43095;53.302;5.786;2022-12-01T16:33:19;52.83;;;30.15;;
57241;SDS011;43095;53.302;5.786;2022-12-01T16:35:49;55.92;;;31.80;;
57241;SDS011;43095;53.302;5.786;2022-12-01T16:38:18;56.25;;;32.17;;
57241;SDS011;43095;53.302;5.786;2022-12-01T16:40:49;55.33;;;32.40;;
57241;SDS011;43095;53.302;5.786;2022-12-01T16:43:27;52.38;;;29.98;;
57241;SDS011;43095;53.302;5.786;2022-12-01T16:45:58;53.22;;;31.65;;
57241;SDS011;43095;53.302;5.786;2022-12-01T16:48:26;53.17;;;31.08;;
57241;SDS011;43095;53.302;5.786;2022-12-01T16:50:54;56.33;;;33.10;;
57241;SDS011;43095;53.302;5.786;2022-12-01T16:53:22;49.67;;;31.25;;
57241;SDS011;43095;53.302;5.786;2022-12-01T16:55:51;55.03;;;31.27;;
57241;SDS011;43095;53.302;5.786;2022-12-01T16:58:20;52.47;;;30.67;;
57241;SDS011;43095;53.302;5.786;2022-12-01T17:00:48;55.03;;;32.72;;
57241;SDS011;43095;53.302;5.786;2022-12-01T17:03:19;51.60;;;31.02;;
57241;SDS011;43095;53.302;5.786;2022-12-01T17:05:49;49.70;;;29.90;;
57241;SDS011;43095;53.302;5.786;2022-12-01T17:08:17;58.30;;;33.75;;
57241;SDS011;43095;53.302;5.786;2022-12-01T17:10:46;60.25;;;33.60;;
57241;SDS011;43095;53.302;5.786;2022-12-01T17:13:18;49.45;;;29.65;;
57241;SDS011;43095;53.302;5.786;2022-12-01T17:15:50;52.65;;;32.78;;
57241;SDS011;43095;53.302;5.786;2022-12-01T17:18:21;56.00;;;33.28;;
57241;SDS011;43095;53.302;5.786;2022-12-01T17:23:54;58.63;;;34.53;;
57241;SDS011;43095;53.302;5.786;2022-12-01T17:26:21;60.28;;;34.92;;
57241;SDS011;43095;53.302;5.786;2022-12-01T17:28:49;56.72;;;34.22;;
57241;SDS011;43095;53.302;5.786;2022-12-01T17:31:18;60.90;;;35.40;;
57241;SDS011;43095;53.302;5.786;2022-12-01T17:33:48;57.78;;;33.30;;
57241;SDS011;43095;53.302;5.786;2022-12-01T17:36:42;57.80;;;34.33;;
57241;SDS011;43095;53.302;5.786;2022-12-01T17:39:13;54.45;;;31.80;;
57241;SDS011;43095;53.302;5.786;2022-12-01T17:41:40;57.35;;;33.35;;
57241;SDS011;43095;53.302;5.786;2022-12-01T17:44:07;62.92;;;35.40;;
57241;SDS011;43095;53.302;5.786;2022-12-01T17:46:35;59.95;;;35.20;;